Corystes — GHRU — position and weather

sailwx.info

Track history (hours):
 
Tides and Currents Weather Stations Pressure Air Temp Water Temp Dewpoint Dewpoint Depression Visibility Wind Speed Wind Dir Waves Ship Positions

Oceanographic research ship Corystes (UK)

Detailed information on ship capabilities available from University of Delaware's Ocean Information Center.

Last reported at 2019-Oct-17 16:42 UTC. Time now 2019-Oct-17 17:37 UTC.
Position N 53°21' W 006°13'.

Length 53 m; draft 5.2 m.

Type: Cargo ship. MMSI: 233558000.

Date/timePositionNaut miles runAvg speedWind from/ knotsBaromVisibWave heightAir tempDewpointWater temp
2019-Oct-17 16:42N 53°21' W 006°13'0 0.0
2019-Oct-17 16:09N 53°21' W 006°13'0 0.0
2019-Oct-17 16:00N 53°21' W 006°13'0 0.0
2019-Oct-17 15:30N 53°21' W 006°13'0 0.0
2019-Oct-17 15:00N 53°21' W 006°13'0 0.0
2019-Oct-17 14:30N 53°21' W 006°13'0 0.0
2019-Oct-17 13:57N 53°21' W 006°13'0 0.0
2019-Oct-17 13:24N 53°21' W 006°13'0 0.0
2019-Oct-17 12:51N 53°21' W 006°13'0 0.0
2019-Oct-17 12:18N 53°21' W 006°13'0 0.0
2019-Oct-17 11:42N 53°21' W 006°13'0 0.0
2019-Oct-17 11:12N 53°21' W 006°13'0 0.0
2019-Oct-17 11:00N 53°21' W 006°13'0 0.0
2019-Oct-17 10:06N 53°21' W 006°13'0 0.1
2019-Oct-17 10:00N 53°21' W 006°13'0 0.0
2019-Oct-17 09:30N 53°21' W 006°13'0 0.0
2019-Oct-17 08:54N 53°21' W 006°13'0 0.0
2019-Oct-17 08:30N 53°21' W 006°13'0 0.0
2019-Oct-17 08:00N 53°21' W 006°13'0 0.0
2019-Oct-17 07:30N 53°21' W 006°13'0 0.0
2019-Oct-17 06:56N 53°21' W 006°13'0 0.0
2019-Oct-17 06:30N 53°21' W 006°13'0 0.0
2019-Oct-17 05:57N 53°21' W 006°13'0 0.0
2019-Oct-17 05:30N 53°21' W 006°13'0 0.0
2019-Oct-17 05:00N 53°21' W 006°13'0 0.0
2019-Oct-17 04:30N 53°21' W 006°13'0 0.0
2019-Oct-17 04:00N 53°21' W 006°13'0 0.0
2019-Oct-17 03:30N 53°21' W 006°13'0 0.0
2019-Oct-17 03:00N 53°21' W 006°13'0 0.0
2019-Oct-17 02:30N 53°21' W 006°13'0 0.0
2019-Oct-17 02:00N 53°21' W 006°13'0 0.0
2019-Oct-17 01:30N 53°21' W 006°13'0 0.0
2019-Oct-17 01:00N 53°21' W 006°13'0 0.0
2019-Oct-17 00:30N 53°21' W 006°13'0 0.0
2019-Oct-17 00:00N 53°21' W 006°13'0 0.0
2019-Oct-16 23:30N 53°21' W 006°13'0 0.0
2019-Oct-16 23:00N 53°21' W 006°13'0 0.0
2019-Oct-16 22:30N 53°21' W 006°13'0 0.0
2019-Oct-16 22:00N 53°21' W 006°13'0 0.0
2019-Oct-16 21:30N 53°21' W 006°13'0 0.0
2019-Oct-16 21:00N 53°21' W 006°13'0 0.0
2019-Oct-16 20:30N 53°21' W 006°13'0 0.0
2019-Oct-16 20:00N 53°21' W 006°13'0 0.0
2019-Oct-16 19:30N 53°21' W 006°13'0 0.0
2019-Oct-16 19:00N 53°21' W 006°13'0 0.0
2019-Oct-16 18:30N 53°21' W 006°13'0 0.0
2019-Oct-16 18:00N 53°21' W 006°13'0 0.0
2019-Oct-16 17:30N 53°21' W 006°13'0 0.0
2019-Oct-16 17:00N 53°21' W 006°13'0 0.0
2019-Oct-16 16:30N 53°21' W 006°13'0 0.0
2019-Oct-16 16:00N 53°21' W 006°13'0 0.0
2019-Oct-16 15:30N 53°21' W 006°13'0 0.0
2019-Oct-16 15:00N 53°21' W 006°13'0 0.0
2019-Oct-16 14:30N 53°21' W 006°13'0 0.0
2019-Oct-16 14:00N 53°21' W 006°13'0 0.0
2019-Oct-16 13:30N 53°21' W 006°13'0 0.0
2019-Oct-16 13:00N 53°21' W 006°13'0 0.0
2019-Oct-16 12:30N 53°21' W 006°13'0 0.0
2019-Oct-16 11:59N 53°21' W 006°13'0 0.0
2019-Oct-16 11:30N 53°21' W 006°13'0 0.0
2019-Oct-16 11:00N 53°21' W 006°13'0 0.0
2019-Oct-16 10:30N 53°21' W 006°13'2 3.4
2019-Oct-16 10:00N 53°21' W 006°10'4 8.7
2019-Oct-16 09:30N 53°19' W 006°03'4 7.7
2019-Oct-16 09:00N 53°19' W 005°56'7 8.0
2019-Oct-16 08:09N 53°13' W 005°51'1 2.4
2019-Oct-16 07:49N 53°12' W 005°51'1 1.6
2019-Oct-16 07:24N 53°12' W 005°51'1 1.7
2019-Oct-16 07:00N 53°12' W 005°52'1 2.3
2019-Oct-16 06:29N 53°11' W 005°52'3 5.5
2019-Oct-16 06:00N 53°14' W 005°52'0 0.7
2019-Oct-16 05:22N 53°13' W 005°52'1 1.8
2019-Oct-16 04:59N 53°14' W 005°52'2 3.4
2019-Oct-16 04:30N 53°15' W 005°51'4 3.0
2019-Oct-16 03:18N 53°18' W 005°46'71 1.9
2019-Oct-14 14:26N 53°51' W 004°01'  
2019-Oct-12 06:51N 54°07' W 005°19'2 1.5
2019-Oct-12 05:28N 54°06' W 005°22'2 4.2
2019-Oct-12 04:58N 54°06' W 005°25'2 4.3
2019-Oct-12 04:29N 54°07' W 005°28'2 4.3
2019-Oct-12 04:00N 54°08' W 005°31'2 4.2
2019-Oct-12 03:30N 54°09' W 005°34'2 4.2
2019-Oct-12 03:00N 54°10' W 005°38'2 4.1
2019-Oct-12 02:30N 54°11' W 005°41'1 2.1
2019-Oct-12 02:00N 54°11' W 005°43'0 0.8
2019-Oct-12 01:30N 54°11' W 005°43'0 0.9
2019-Oct-12 01:00N 54°10' W 005°44'0 0.8
2019-Oct-12 00:30N 54°10' W 005°44'0 0.9
2019-Oct-12 00:00N 54°10' W 005°45'0 1.0
2019-Oct-11 23:30N 54°10' W 005°46'0 0.7
2019-Oct-11 22:59N 54°10' W 005°46'1 1.5
2019-Oct-11 22:30N 54°11' W 005°46'1 1.4
2019-Oct-11 22:00N 54°11' W 005°46'0 0.7
2019-Oct-11 21:30N 54°11' W 005°46'0 0.7
2019-Oct-11 20:58N 54°11' W 005°46'0 0.6
2019-Oct-11 20:30N 54°10' W 005°47'0 0.7
2019-Oct-11 20:00N 54°10' W 005°47'0 0.1
2019-Oct-11 19:30N 54°10' W 005°47'0 1.0
2019-Oct-11 19:00N 54°10' W 005°46'0 0.7
2019-Oct-11 18:30N 54°11' W 005°46'0 0.6
2019-Oct-11 18:00N 54°11' W 005°46'0 0.8
2019-Oct-11 17:30N 54°11' W 005°45'0 1.0
2019-Oct-11 17:00N 54°11' W 005°45'1 1.5
2019-Oct-11 16:30N 54°11' W 005°43'2 4.2
2019-Oct-11 16:00N 54°10' W 005°40'3 6.2
2019-Oct-11 15:28N 54°08' W 005°36'3 6.0
2019-Oct-11 15:00N 54°07' W 005°32'7 4.4
2019-Oct-11 13:28N 54°12' W 005°25'2 3.5
2019-Oct-11 12:59N 54°14' W 005°24'2 3.9
2019-Oct-11 12:30N 54°16' W 005°23'3 7.0
2019-Oct-11 12:00N 54°19' W 005°20'3 5.8
2019-Oct-11 11:29N 54°21' W 005°17'2 2.7
2019-Oct-11 10:55N 54°23' W 005°18'3 6.9
2019-Oct-11 10:30N 54°25' W 005°20'4 8.4
2019-Oct-11 09:59N 54°29' W 005°23'4 8.7
2019-Oct-11 09:30N 54°33' W 005°25'3 5.6
2019-Oct-11 08:59N 54°36' W 005°27'1 2.9
2019-Oct-11 08:30N 54°35' W 005°26'4 7.7
2019-Oct-11 08:00N 54°38' W 005°29'5 9.1
2019-Oct-11 07:30N 54°43' W 005°31'5 9.4
2019-Oct-11 07:00N 54°44' W 005°39'1 2.7
2019-Oct-11 06:30N 54°44' W 005°37'3 6.8
2019-Oct-11 06:00N 54°43' W 005°31'3 6.3
2019-Oct-11 05:30N 54°41' W 005°27'3 5.6
2019-Oct-11 05:00N 54°38' W 005°25'1 2.1
2019-Oct-11 04:30N 54°37' W 005°26'1 1.7
2019-Oct-11 04:00N 54°38' W 005°28'1 1.5
2019-Oct-11 03:30N 54°38' W 005°29'0 0.8
2019-Oct-11 03:00N 54°38' W 005°29'0 0.9
2019-Oct-11 02:30N 54°38' W 005°30'0 1.0
2019-Oct-11 02:00N 54°37' W 005°30'1 1.8
2019-Oct-11 01:30N 54°38' W 005°29'1 1.5
2019-Oct-11 01:00N 54°37' W 005°29'1 1.4
2019-Oct-11 00:30N 54°36' W 005°29'0 0.3
2019-Oct-11 00:00N 54°36' W 005°29'1 1.3
2019-Oct-10 23:30N 54°37' W 005°29'0 0.8
2019-Oct-10 22:54N 54°37' W 005°29'0 0.6
2019-Oct-10 22:29N 54°38' W 005°29'0 0.8
2019-Oct-10 21:59N 54°38' W 005°29'0 1.0
2019-Oct-10 21:30N 54°38' W 005°29'1 2.0
2019-Oct-10 20:57N 54°37' W 005°29'1 1.3
2019-Oct-10 20:30N 54°36' W 005°29'2 3.1
2019-Oct-10 19:57N 54°35' W 005°27'1 3.1
2019-Oct-10 19:30N 54°33' W 005°26'4 7.6
2019-Oct-10 19:00N 54°30' W 005°22'4 8.0
2019-Oct-10 18:27N 54°26' W 005°20'4 8.1
2019-Oct-10 17:56N 54°22' W 005°21'4 8.6
2019-Oct-10 17:30N 54°19' W 005°25'5 8.9
2019-Oct-10 17:00N 54°16' W 005°31'5 9.2
2019-Oct-10 16:25N 54°13' W 005°38'3 6.3
2019-Oct-10 15:55N 54°10' W 005°42'1 1.2
2019-Oct-10 15:29N 54°10' W 005°41'2 3.1
2019-Oct-10 14:57N 54°08' W 005°41'2 3.4
2019-Oct-10 14:24N 54°10' W 005°41'2 4.9
2019-Oct-10 14:00N 54°08' W 005°41'4 8.7
2019-Oct-10 13:30N 54°04' W 005°43'6 2.6
2019-Oct-10 11:19N 53°59' W 005°45'2 3.2
2019-Oct-10 10:36N 53°58' W 005°41'11 3.6
2019-Oct-10 07:34N 53°53' W 005°57'2 7.5
2019-Oct-10 07:18N 53°51' W 006°00'3 3.3
2019-Oct-10 06:26N 53°52' W 006°05'1 0.4
2019-Oct-10 04:11N 53°51' W 006°05'1 0.9
2019-Oct-10 02:49N 53°50' W 006°07'0 0.8
2019-Oct-10 02:30N 53°50' W 006°08'0 0.0
2019-Oct-09 23:57N 53°50' W 006°08'0 0.1
2019-Oct-09 21:32N 53°50' W 006°08'0 1.5
2019-Oct-09 21:23N 53°50' W 006°07'1 1.8
2019-Oct-09 20:37N 53°51' W 006°05'0 1.7
2019-Oct-09 20:30N 53°51' W 006°05'3 0.8
2019-Oct-09 17:05N 53°51' W 006°00'17 1.3
2019-Oct-09 04:32N 53°34' W 005°59'1 1.0
2019-Oct-09 03:40N 53°34' W 006°01'2 0.2
2019-Oct-08 19:15N 53°34' W 005°58'70 2.7
2019-Oct-07 16:49N 53°47' W 004°02'  
Track history (hours):
 
Tides and Currents Weather Stations Pressure Air Temp Water Temp Dewpoint Dewpoint Depression Visibility Wind Speed Wind Dir Waves Ship Positions

Oceanographic research ship Corystes (UK)

Detailed information on ship capabilities available from University of Delaware's Ocean Information Center.

Last reported at 2019-Oct-17 16:42 UTC. Time now 2019-Oct-17 17:37 UTC.
Position N 53°21' W 006°13'.

Length 53 m; draft 5.2 m.

Type: Cargo ship. MMSI: 233558000.

Date/timePositionNaut miles runAvg speedWind from/ knotsBaromVisibWave heightAir tempDewpointWater temp
2019-Oct-17 16:42N 53°21' W 006°13'0 0.0
2019-Oct-17 16:09N 53°21' W 006°13'0 0.0
2019-Oct-17 16:00N 53°21' W 006°13'0 0.0
2019-Oct-17 15:30N 53°21' W 006°13'0 0.0
2019-Oct-17 15:00N 53°21' W 006°13'0 0.0
2019-Oct-17 14:30N 53°21' W 006°13'0 0.0
2019-Oct-17 13:57N 53°21' W 006°13'0 0.0
2019-Oct-17 13:24N 53°21' W 006°13'0 0.0
2019-Oct-17 12:51N 53°21' W 006°13'0 0.0
2019-Oct-17 12:18N 53°21' W 006°13'0 0.0
2019-Oct-17 11:42N 53°21' W 006°13'0 0.0
2019-Oct-17 11:12N 53°21' W 006°13'0 0.0
2019-Oct-17 11:00N 53°21' W 006°13'0 0.0
2019-Oct-17 10:06N 53°21' W 006°13'0 0.1
2019-Oct-17 10:00N 53°21' W 006°13'0 0.0
2019-Oct-17 09:30N 53°21' W 006°13'0 0.0
2019-Oct-17 08:54N 53°21' W 006°13'0 0.0
2019-Oct-17 08:30N 53°21' W 006°13'0 0.0
2019-Oct-17 08:00N 53°21' W 006°13'0 0.0
2019-Oct-17 07:30N 53°21' W 006°13'0 0.0
2019-Oct-17 06:56N 53°21' W 006°13'0 0.0
2019-Oct-17 06:30N 53°21' W 006°13'0 0.0
2019-Oct-17 05:57N 53°21' W 006°13'0 0.0
2019-Oct-17 05:30N 53°21' W 006°13'0 0.0
2019-Oct-17 05:00N 53°21' W 006°13'0 0.0
2019-Oct-17 04:30N 53°21' W 006°13'0 0.0
2019-Oct-17 04:00N 53°21' W 006°13'0 0.0
2019-Oct-17 03:30N 53°21' W 006°13'0 0.0
2019-Oct-17 03:00N 53°21' W 006°13'0 0.0
2019-Oct-17 02:30N 53°21' W 006°13'0 0.0
2019-Oct-17 02:00N 53°21' W 006°13'0 0.0
2019-Oct-17 01:30N 53°21' W 006°13'0 0.0
2019-Oct-17 01:00N 53°21' W 006°13'0 0.0
2019-Oct-17 00:30N 53°21' W 006°13'0 0.0
2019-Oct-17 00:00N 53°21' W 006°13'0 0.0
2019-Oct-16 23:30N 53°21' W 006°13'0 0.0
2019-Oct-16 23:00N 53°21' W 006°13'0 0.0
2019-Oct-16 22:30N 53°21' W 006°13'0 0.0
2019-Oct-16 22:00N 53°21' W 006°13'0 0.0
2019-Oct-16 21:30N 53°21' W 006°13'0 0.0
2019-Oct-16 21:00N 53°21' W 006°13'0 0.0
2019-Oct-16 20:30N 53°21' W 006°13'0 0.0
2019-Oct-16 20:00N 53°21' W 006°13'0 0.0
2019-Oct-16 19:30N 53°21' W 006°13'0 0.0
2019-Oct-16 19:00N 53°21' W 006°13'0 0.0
2019-Oct-16 18:30N 53°21' W 006°13'0 0.0
2019-Oct-16 18:00N 53°21' W 006°13'0 0.0
2019-Oct-16 17:30N 53°21' W 006°13'0 0.0
2019-Oct-16 17:00N 53°21' W 006°13'0 0.0
2019-Oct-16 16:30N 53°21' W 006°13'0 0.0
2019-Oct-16 16:00N 53°21' W 006°13'0 0.0
2019-Oct-16 15:30N 53°21' W 006°13'0 0.0
2019-Oct-16 15:00N 53°21' W 006°13'0 0.0
2019-Oct-16 14:30N 53°21' W 006°13'0 0.0
2019-Oct-16 14:00N 53°21' W 006°13'0 0.0
2019-Oct-16 13:30N 53°21' W 006°13'0 0.0
2019-Oct-16 13:00N 53°21' W 006°13'0 0.0
2019-Oct-16 12:30N 53°21' W 006°13'0 0.0
2019-Oct-16 11:59N 53°21' W 006°13'0 0.0
2019-Oct-16 11:30N 53°21' W 006°13'0 0.0
2019-Oct-16 11:00N 53°21' W 006°13'0 0.0
2019-Oct-16 10:30N 53°21' W 006°13'2 3.4
2019-Oct-16 10:00N 53°21' W 006°10'4 8.7
2019-Oct-16 09:30N 53°19' W 006°03'4 7.7
2019-Oct-16 09:00N 53°19' W 005°56'7 8.0
2019-Oct-16 08:09N 53°13' W 005°51'1 2.4
2019-Oct-16 07:49N 53°12' W 005°51'1 1.6
2019-Oct-16 07:24N 53°12' W 005°51'1 1.7
2019-Oct-16 07:00N 53°12' W 005°52'1 2.3
2019-Oct-16 06:29N 53°11' W 005°52'3 5.5
2019-Oct-16 06:00N 53°14' W 005°52'0 0.7
2019-Oct-16 05:22N 53°13' W 005°52'1 1.8
2019-Oct-16 04:59N 53°14' W 005°52'2 3.4
2019-Oct-16 04:30N 53°15' W 005°51'4 3.0
2019-Oct-16 03:18N 53°18' W 005°46'71 1.9
2019-Oct-14 14:26N 53°51' W 004°01'  
2019-Oct-12 06:51N 54°07' W 005°19'2 1.5
2019-Oct-12 05:28N 54°06' W 005°22'2 4.2
2019-Oct-12 04:58N 54°06' W 005°25'2 4.3
2019-Oct-12 04:29N 54°07' W 005°28'2 4.3
2019-Oct-12 04:00N 54°08' W 005°31'2 4.2
2019-Oct-12 03:30N 54°09' W 005°34'2 4.2
2019-Oct-12 03:00N 54°10' W 005°38'2 4.1
2019-Oct-12 02:30N 54°11' W 005°41'1 2.1
2019-Oct-12 02:00N 54°11' W 005°43'0 0.8
2019-Oct-12 01:30N 54°11' W 005°43'0 0.9
2019-Oct-12 01:00N 54°10' W 005°44'0 0.8
2019-Oct-12 00:30N 54°10' W 005°44'0 0.9
2019-Oct-12 00:00N 54°10' W 005°45'0 1.0
2019-Oct-11 23:30N 54°10' W 005°46'0 0.7
2019-Oct-11 22:59N 54°10' W 005°46'1 1.5
2019-Oct-11 22:30N 54°11' W 005°46'1 1.4
2019-Oct-11 22:00N 54°11' W 005°46'0 0.7
2019-Oct-11 21:30N 54°11' W 005°46'0 0.7
2019-Oct-11 20:58N 54°11' W 005°46'0 0.6
2019-Oct-11 20:30N 54°10' W 005°47'0 0.7
2019-Oct-11 20:00N 54°10' W 005°47'0 0.1
2019-Oct-11 19:30N 54°10' W 005°47'0 1.0
2019-Oct-11 19:00N 54°10' W 005°46'0 0.7
2019-Oct-11 18:30N 54°11' W 005°46'0 0.6
2019-Oct-11 18:00N 54°11' W 005°46'0 0.8
2019-Oct-11 17:30N 54°11' W 005°45'0 1.0
2019-Oct-11 17:00N 54°11' W 005°45'1 1.5
2019-Oct-11 16:30N 54°11' W 005°43'2 4.2
2019-Oct-11 16:00N 54°10' W 005°40'3 6.2
2019-Oct-11 15:28N 54°08' W 005°36'3 6.0
2019-Oct-11 15:00N 54°07' W 005°32'7 4.4
2019-Oct-11 13:28N 54°12' W 005°25'2 3.5
2019-Oct-11 12:59N 54°14' W 005°24'2 3.9
2019-Oct-11 12:30N 54°16' W 005°23'3 7.0
2019-Oct-11 12:00N 54°19' W 005°20'3 5.8
2019-Oct-11 11:29N 54°21' W 005°17'2 2.7
2019-Oct-11 10:55N 54°23' W 005°18'3 6.9
2019-Oct-11 10:30N 54°25' W 005°20'4 8.4
2019-Oct-11 09:59N 54°29' W 005°23'4 8.7
2019-Oct-11 09:30N 54°33' W 005°25'3 5.6
2019-Oct-11 08:59N 54°36' W 005°27'1 2.9
2019-Oct-11 08:30N 54°35' W 005°26'4 7.7
2019-Oct-11 08:00N 54°38' W 005°29'5 9.1
2019-Oct-11 07:30N 54°43' W 005°31'5 9.4
2019-Oct-11 07:00N 54°44' W 005°39'1 2.7
2019-Oct-11 06:30N 54°44' W 005°37'3 6.8
2019-Oct-11 06:00N 54°43' W 005°31'3 6.3
2019-Oct-11 05:30N 54°41' W 005°27'3 5.6
2019-Oct-11 05:00N 54°38' W 005°25'1 2.1
2019-Oct-11 04:30N 54°37' W 005°26'1 1.7
2019-Oct-11 04:00N 54°38' W 005°28'1 1.5
2019-Oct-11 03:30N 54°38' W 005°29'0 0.8
2019-Oct-11 03:00N 54°38' W 005°29'0 0.9
2019-Oct-11 02:30N 54°38' W 005°30'0 1.0
2019-Oct-11 02:00N 54°37' W 005°30'1 1.8
2019-Oct-11 01:30N 54°38' W 005°29'1 1.5
2019-Oct-11 01:00N 54°37' W 005°29'1 1.4
2019-Oct-11 00:30N 54°36' W 005°29'0 0.3
2019-Oct-11 00:00N 54°36' W 005°29'1 1.3
2019-Oct-10 23:30N 54°37' W 005°29'0 0.8
2019-Oct-10 22:54N 54°37' W 005°29'0 0.6
2019-Oct-10 22:29N 54°38' W 005°29'0 0.8
2019-Oct-10 21:59N 54°38' W 005°29'0 1.0
2019-Oct-10 21:30N 54°38' W 005°29'1 2.0
2019-Oct-10 20:57N 54°37' W 005°29'1 1.3
2019-Oct-10 20:30N 54°36' W 005°29'2 3.1
2019-Oct-10 19:57N 54°35' W 005°27'1 3.1
2019-Oct-10 19:30N 54°33' W 005°26'4 7.6
2019-Oct-10 19:00N 54°30' W 005°22'4 8.0
2019-Oct-10 18:27N 54°26' W 005°20'4 8.1
2019-Oct-10 17:56N 54°22' W 005°21'4 8.6
2019-Oct-10 17:30N 54°19' W 005°25'5 8.9
2019-Oct-10 17:00N 54°16' W 005°31'5 9.2
2019-Oct-10 16:25N 54°13' W 005°38'3 6.3
2019-Oct-10 15:55N 54°10' W 005°42'1 1.2
2019-Oct-10 15:29N 54°10' W 005°41'2 3.1
2019-Oct-10 14:57N 54°08' W 005°41'2 3.4
2019-Oct-10 14:24N 54°10' W 005°41'2 4.9
2019-Oct-10 14:00N 54°08' W 005°41'4 8.7
2019-Oct-10 13:30N 54°04' W 005°43'6 2.6
2019-Oct-10 11:19N 53°59' W 005°45'2 3.2
2019-Oct-10 10:36N 53°58' W 005°41'11 3.6
2019-Oct-10 07:34N 53°53' W 005°57'2 7.5
2019-Oct-10 07:18N 53°51' W 006°00'3 3.3
2019-Oct-10 06:26N 53°52' W 006°05'1 0.4
2019-Oct-10 04:11N 53°51' W 006°05'1 0.9
2019-Oct-10 02:49N 53°50' W 006°07'0 0.8
2019-Oct-10 02:30N 53°50' W 006°08'0 0.0
2019-Oct-09 23:57N 53°50' W 006°08'0 0.1
2019-Oct-09 21:32N 53°50' W 006°08'0 1.5
2019-Oct-09 21:23N 53°50' W 006°07'1 1.8
2019-Oct-09 20:37N 53°51' W 006°05'0 1.7
2019-Oct-09 20:30N 53°51' W 006°05'3 0.8
2019-Oct-09 17:05N 53°51' W 006°00'17 1.3
2019-Oct-09 04:32N 53°34' W 005°59'1 1.0
2019-Oct-09 03:40N 53°34' W 006°01'2 0.2
2019-Oct-08 19:15N 53°34' W 005°58'70 2.7
2019-Oct-07 16:49N 53°47' W 004°02'  

Dump ship's entire track history